createdAt,value
2022-12-27T00:04:57.483Z,983.11
2022-12-27T00:10:29.502Z,982.9
2022-12-27T00:16:01.333Z,982.62
2022-12-27T00:21:36.934Z,982.57
2022-12-27T00:27:08.749Z,982.89
2022-12-27T00:32:40.507Z,982.41
2022-12-27T00:38:12.108Z,982.97
2022-12-27T00:43:43.857Z,982.46
2022-12-27T00:49:15.583Z,982.4
2022-12-27T00:54:47.658Z,982.79
2022-12-27T01:00:19.166Z,982.73
2022-12-27T01:05:50.835Z,983.08
2022-12-27T01:11:22.677Z,982.97
2022-12-27T01:16:54.333Z,983.0
2022-12-27T01:22:30.483Z,983.02
2022-12-27T01:28:02.057Z,983.44
2022-12-27T01:33:34.329Z,983.43
2022-12-27T01:39:05.544Z,983.39
2022-12-27T01:44:37.405Z,984.09
2022-12-27T01:50:09.097Z,983.25
2022-12-27T01:55:40.903Z,983.54
2022-12-27T02:01:12.684Z,983.62
2022-12-27T02:06:45.306Z,984.01
2022-12-27T02:12:16.741Z,984.5
2022-12-27T02:17:47.361Z,983.79
2022-12-27T02:23:25.842Z,983.87
2022-12-27T02:28:57.258Z,984.09
2022-12-27T02:34:29.239Z,984.48
2022-12-27T02:40:00.762Z,984.52
2022-12-27T02:45:32.618Z,984.28
2022-12-27T02:51:04.426Z,984.01
2022-12-27T02:56:36.124Z,983.7
2022-12-27T03:02:08.163Z,983.49
2022-12-27T03:07:39.530Z,983.44
2022-12-27T03:13:11.297Z,983.01
2022-12-27T03:18:43.193Z,982.97
2022-12-27T03:24:18.987Z,982.59
2022-12-27T03:29:50.705Z,982.73
2022-12-27T03:35:22.341Z,983.06
2022-12-27T03:40:54.373Z,982.87
2022-12-27T03:46:25.869Z,983.38
2022-12-27T03:51:57.770Z,983.0
2022-12-27T03:57:29.676Z,983.11
2022-12-27T04:03:02.635Z,983.33
2022-12-27T04:08:32.787Z,983.27
2022-12-27T04:14:04.644Z,983.06
2022-12-27T04:19:36.570Z,982.9
2022-12-27T04:25:12.541Z,983.24
2022-12-27T04:30:44.129Z,983.09
2022-12-27T04:36:15.653Z,983.06
2022-12-27T04:41:48.270Z,983.39
2022-12-27T04:47:19.410Z,982.87
2022-12-27T04:52:51.487Z,982.98
2022-12-27T04:58:22.511Z,982.89
2022-12-27T05:03:54.611Z,983.01
2022-12-27T05:09:26.145Z,982.98
2022-12-27T05:14:57.699Z,983.27
2022-12-27T05:20:29.216Z,982.95
2022-12-27T05:26:07.472Z,983.25
2022-12-27T05:31:39.427Z,983.0
2022-12-27T05:37:11.396Z,983.43
2022-12-27T05:42:43.015Z,983.33
2022-12-27T05:48:14.608Z,982.78
2022-12-27T05:53:46.525Z,982.86
2022-12-27T05:59:18.015Z,983.36
2022-12-27T06:04:49.941Z,983.44
2022-12-27T06:10:21.871Z,983.45
2022-12-27T06:15:53.268Z,983.53
2022-12-27T06:21:24.932Z,983.32
2022-12-27T06:27:00.995Z,983.23
2022-12-27T06:32:32.748Z,983.12
2022-12-27T06:38:04.359Z,983.05
2022-12-27T06:43:36.488Z,983.41
2022-12-27T06:49:08.065Z,983.64
2022-12-27T06:54:40.121Z,982.83
2022-12-27T07:00:11.518Z,983.37
2022-12-27T07:05:43.047Z,983.84
2022-12-27T07:11:14.492Z,983.47
2022-12-27T07:16:46.771Z,983.45
2022-12-27T07:22:17.910Z,983.82
2022-12-27T07:27:54.351Z,983.16
2022-12-27T07:33:25.873Z,983.94
2022-12-27T07:38:58.327Z,983.72
2022-12-27T07:44:29.252Z,983.75
2022-12-27T07:50:01.238Z,984.09
2022-12-27T07:55:32.788Z,983.92
2022-12-27T08:01:04.836Z,984.0
2022-12-27T08:06:36.304Z,984.1
2022-12-27T08:12:08.331Z,983.89
2022-12-27T08:17:39.920Z,984.5
2022-12-27T08:23:11.474Z,984.52
2022-12-27T08:28:47.556Z,984.84
2022-12-27T08:34:19.753Z,985.49
2022-12-27T08:39:51.401Z,985.41
2022-12-27T08:45:22.969Z,985.09
2022-12-27T08:50:54.697Z,985.43
2022-12-27T08:56:26.556Z,985.49
2022-12-27T09:01:58.427Z,985.94
2022-12-27T09:07:29.796Z,986.16
2022-12-27T09:13:01.657Z,986.62
2022-12-27T09:18:33.056Z,986.63
2022-12-27T09:24:05.113Z,986.73
2022-12-27T09:29:49.287Z,986.66
2022-12-27T09:35:12.653Z,986.6
2022-12-27T09:40:44.341Z,986.64
2022-12-27T09:46:16.150Z,986.86
2022-12-27T09:51:47.813Z,986.89
2022-12-27T09:57:21.392Z,987.39
2022-12-27T10:02:51.360Z,987.42
2022-12-27T10:08:23.140Z,987.76
2022-12-27T10:13:54.760Z,987.87
2022-12-27T10:19:26.449Z,988.1
2022-12-27T10:25:00.353Z,987.99
2022-12-27T10:30:34.154Z,987.74
2022-12-27T10:36:05.915Z,987.75
2022-12-27T10:41:38.192Z,988.06
2022-12-27T10:47:11.596Z,988.57
2022-12-27T10:52:41.146Z,988.93
2022-12-27T10:58:13.079Z,988.64
2022-12-27T11:03:44.908Z,988.64
2022-12-27T11:09:16.361Z,988.91
2022-12-27T11:14:48.150Z,988.93
2022-12-27T11:20:19.842Z,989.31
2022-12-27T11:25:51.483Z,988.96
2022-12-27T11:31:28.425Z,989.98
2022-12-27T11:36:59.596Z,989.5
2022-12-27T11:42:31.611Z,989.11
2022-12-27T11:48:03.454Z,989.28
2022-12-27T11:53:34.698Z,989.2
2022-12-27T11:59:06.528Z,988.94
2022-12-27T12:04:38.504Z,988.55
2022-12-27T12:10:11.381Z,989.59
2022-12-27T12:15:41.557Z,988.87
2022-12-27T12:21:13.095Z,989.41
2022-12-27T12:26:45.137Z,989.14
2022-12-27T12:32:23.041Z,989.44
2022-12-27T12:37:54.684Z,989.18
2022-12-27T12:43:28.353Z,989.51
2022-12-27T12:48:58.280Z,988.42
2022-12-27T12:54:29.774Z,988.56
2022-12-27T13:00:01.642Z,988.7
2022-12-27T13:05:33.515Z,988.95
2022-12-27T13:11:05.270Z,989.13
2022-12-27T13:16:36.876Z,987.89
2022-12-27T13:22:08.753Z,988.39
2022-12-27T13:27:40.955Z,988.25
2022-12-27T13:33:16.429Z,987.78
2022-12-27T13:38:48.528Z,987.87
2022-12-27T13:44:20.192Z,987.91
2022-12-27T13:49:51.967Z,988.17
2022-12-27T13:55:23.384Z,987.97
2022-12-27T14:00:55.295Z,987.98
2022-12-27T14:06:27.771Z,987.47
2022-12-27T14:11:59.029Z,988.27
2022-12-27T14:17:30.403Z,988.05
2022-12-27T14:23:02.369Z,987.75
2022-12-27T14:28:33.749Z,987.53
2022-12-27T14:34:09.805Z,987.38
2022-12-27T14:39:41.657Z,987.01
2022-12-27T14:45:13.292Z,987.13
2022-12-27T14:50:44.967Z,987.23
2022-12-27T14:56:16.740Z,986.61
2022-12-27T15:01:49.053Z,986.97
2022-12-27T15:07:20.311Z,986.4
2022-12-27T15:12:52.048Z,986.25
2022-12-27T15:18:24.006Z,986.68
2022-12-27T15:23:55.467Z,986.55
2022-12-27T15:29:27.023Z,985.47
2022-12-27T15:35:05.165Z,986.1
2022-12-27T15:40:36.808Z,985.64
2022-12-27T15:46:08.770Z,985.17
2022-12-27T15:51:40.311Z,985.18
2022-12-27T15:57:12.237Z,985.35
2022-12-27T16:02:44.440Z,985.2
2022-12-27T16:08:15.518Z,985.42
2022-12-27T16:13:47.207Z,985.25
2022-12-27T16:19:18.921Z,985.33
2022-12-27T16:24:50.655Z,984.93
2022-12-27T16:30:22.614Z,984.95
2022-12-27T16:36:00.714Z,985.0
2022-12-27T16:41:32.254Z,984.46
2022-12-27T16:47:04.314Z,984.2
2022-12-27T16:52:35.686Z,984.16
2022-12-27T16:58:07.381Z,984.48
2022-12-27T17:03:39.603Z,984.16
2022-12-27T17:09:11.459Z,984.47
2022-12-27T17:14:42.597Z,984.44
2022-12-27T17:20:14.456Z,984.16
2022-12-27T17:25:45.950Z,983.72
2022-12-27T17:31:17.861Z,983.65
2022-12-27T17:36:54.162Z,983.39
2022-12-27T17:42:25.950Z,983.11
2022-12-27T17:47:57.337Z,982.94
2022-12-27T17:53:28.987Z,982.81
2022-12-27T17:59:00.862Z,982.86
2022-12-27T18:04:32.388Z,982.61
2022-12-27T18:10:04.170Z,982.49
2022-12-27T18:15:36.345Z,982.26
2022-12-27T18:21:08.081Z,982.14
2022-12-27T18:26:39.773Z,982.03
2022-12-27T18:32:11.445Z,982.05
2022-12-27T18:37:49.653Z,981.91
2022-12-27T18:43:21.040Z,981.66
2022-12-27T18:48:53.014Z,981.67
2022-12-27T18:54:25.353Z,981.42
2022-12-27T18:59:56.525Z,981.35
2022-12-27T19:05:27.928Z,981.1
2022-12-27T19:10:59.629Z,981.22
2022-12-27T19:16:31.701Z,981.1
2022-12-27T19:22:03.055Z,980.96
2022-12-27T19:27:34.906Z,981.15
2022-12-27T19:33:06.512Z,980.73
2022-12-27T19:38:49.021Z,980.82
2022-12-27T19:44:14.532Z,980.61
2022-12-27T19:49:46.266Z,980.21
2022-12-27T19:55:17.867Z,980.08
2022-12-27T20:00:50.443Z,979.88
2022-12-27T20:06:28.780Z,979.74
2022-12-27T20:11:53.231Z,979.67
2022-12-27T20:17:24.682Z,979.43
2022-12-27T20:22:56.497Z,979.21
2022-12-27T20:28:28.038Z,979.07
2022-12-27T20:34:00.053Z,979.09
2022-12-27T20:39:37.980Z,979.12
2022-12-27T20:45:09.692Z,979.0
2022-12-27T20:50:42.213Z,978.96
2022-12-27T20:56:13.569Z,978.78
2022-12-27T21:01:45.501Z,978.77
2022-12-27T21:07:16.952Z,978.79
2022-12-27T21:12:48.628Z,978.54
2022-12-27T21:18:20.490Z,978.35
2022-12-27T21:23:52.074Z,978.64
2022-12-27T21:29:23.712Z,978.67
2022-12-27T21:34:55.366Z,978.74
2022-12-27T21:40:31.770Z,978.45
2022-12-27T21:46:03.490Z,978.44
2022-12-27T21:51:35.039Z,978.38
2022-12-27T21:57:06.597Z,978.44
2022-12-27T22:02:38.842Z,978.44
2022-12-27T22:08:09.918Z,978.39
2022-12-27T22:13:41.792Z,978.45
2022-12-27T22:19:13.449Z,978.8
2022-12-27T22:24:45.161Z,978.63
2022-12-27T22:30:16.823Z,978.58
2022-12-27T22:35:48.762Z,978.47
2022-12-27T22:41:24.624Z,978.42
2022-12-27T22:47:28.698Z,978.05
2022-12-27T22:52:28.230Z,977.77
2022-12-27T22:58:00.001Z,977.88
2022-12-27T23:03:31.563Z,978.46
2022-12-27T23:09:03.373Z,978.53
2022-12-27T23:14:35.580Z,978.34
2022-12-27T23:20:06.990Z,978.09
2022-12-27T23:25:38.613Z,978.16
2022-12-27T23:31:10.911Z,978.91
2022-12-27T23:36:42.110Z,978.93
2022-12-27T23:42:18.144Z,978.95
2022-12-27T23:47:50.281Z,979.15
2022-12-27T23:53:22.863Z,979.32
2022-12-27T23:58:53.666Z,979.18
